Salisbury, MD (21801)

7:26 AM EDT on July 26, 2016 (GMT -0400)
Pemberton | | Change Station

Elev 26 ft 38.36 °N, 75.62 °W | Updated 40 seconds ago

Clear
Clear
75.8 °F
Feels Like 75 °F
N
2.6
Wind Variable Wind from West
Gusts 4.0 mph

Today
High -- | Low -- °F
--% Chance of Precip.
Yesterday
High -- | Low -- °F
Precip. -- in
Pressure 29.93 in
Visibility 9.0 miles
Clouds Clear
Heat Index 75 °F
Dew Point 74 °F
Humidity 97%
Rainfall 0.49 in
Snow Depth Not available.
5:59 AM 8:17 PM
Waning Gibbous, 55% visible
METAR KSBY 261054Z 32003KT 9SM CLR 24/24 A2992 RMK AO2 SLP133 T02440239
Pressure 29.93 in
Visibility 9.0 miles
Clouds Clear
Heat Index 75 °F
Dew Point 74 °F
Humidity 97%
Rainfall 0.49 in
Snow Depth Not available.
5:59 AM 8:17 PM
Waning Gibbous, 55% visible
METAR KSBY 261054Z 32003KT 9SM CLR 24/24 A2992 RMK AO2 SLP133 T02440239

10-Day Weather Forecast

Almanac

Astronomy

Jul. 26, 2016 Rise Set
Actual Time
Civil Twilight
Nautical Twilight
Astronomical Twilight
Moon
Length of Visible Light
Length of Day
Tomorrow will be .
, % of the Moon is Illuminated

Today's Extremes

State Highs State Lows

Community

WunderPhotos

Upload Photos

1,927,575 photos uploaded!

WunderBlog® & News

Nearby

Air Quality

  Air Quality AQ Index Pollutant
Not available.

Snow Depth

Station Depth Elevation

Earthquake Activity

City Distance Mag. Time & Date
Minimum magnitude displayed is 2.5.

Coastal Water Temperatures

Place Temperature

Stations

Nearby Weather Stations

Station Location Temp. Windchill Dew Point Humidity Wind Precip. Elev Updated Type
                   

Watches & Warnings

There are currently no watches in effect.